Time;durP1;ratioP1;P1;durP2;ratioP2;P2;SDS_P1;SDS_P2;PMS_P1;PMS_P2;Temp;Humidity;BMP_temperature;BMP_pressure;BME280_temperature;BME280_humidity;BME280_pressure;Samples;Min_cycle;Max_cycle;Signal;HPM_P1;HPM_P2
2024/01/27 00:00:29;;;;;;;1.92;1.13;;;2.10;99.90;;;;;;4999311;28;20510;-80
2024/01/27 00:02:56;;;;;;;1.88;0.77;;;2.10;99.90;;;;;;5001869;28;20502;-80
2024/01/27 00:05:23;;;;;;;1.23;0.60;;;2.10;99.90;;;;;;5000885;28;20053;-79
2024/01/27 00:07:54;;;;;;;1.50;0.90;;;2.10;99.90;;;;;;5002381;28;20053;-80
2024/01/27 00:10:21;;;;;;;1.27;0.70;;;2.10;99.90;;;;;;4984969;28;20060;-81
2024/01/27 00:12:48;;;;;;;1.27;0.70;;;2.00;99.90;;;;;;4968614;28;20050;-80
2024/01/27 00:15:15;;;;;;;1.33;0.68;;;2.00;99.90;;;;;;4983771;28;20137;-80
2024/01/27 00:17:47;;;;;;;1.42;0.80;;;2.00;99.90;;;;;;4980839;28;20050;-80
2024/01/27 00:20:14;;;;;;;0.90;0.70;;;2.10;99.90;;;;;;4999476;28;20046;-81
2024/01/27 00:22:41;;;;;;;2.38;1.13;;;2.10;99.90;;;;;;4984977;28;20065;-81
2024/01/27 00:25:08;;;;;;;1.75;0.85;;;2.00;99.90;;;;;;4966833;28;20049;-81
2024/01/27 00:27:36;;;;;;;0.82;0.60;;;2.00;99.90;;;;;;4969100;28;20061;-80
2024/01/27 00:30:04;;;;;;;1.65;0.50;;;2.00;99.90;;;;;;5000575;28;20056;-81
2024/01/27 00:32:33;;;;;;;1.67;0.80;;;2.00;99.90;;;;;;5000740;28;20084;-80
2024/01/27 00:35:01;;;;;;;1.05;0.50;;;2.00;99.90;;;;;;4985178;28;20352;-81
2024/01/27 00:37:28;;;;;;;0.77;0.55;;;2.00;99.90;;;;;;4984387;28;20468;-81
2024/01/27 00:39:55;;;;;;;1.02;0.60;;;2.00;99.90;;;;;;4983669;28;20480;-81
2024/01/27 00:42:23;;;;;;;0.60;0.47;;;1.90;99.90;;;;;;4982995;28;20050;-81
2024/01/27 00:44:52;;;;;;;1.33;0.68;;;1.90;99.90;;;;;;4996095;28;20054;-81
2024/01/27 00:47:19;;;;;;;2.35;0.63;;;1.80;99.90;;;;;;4967637;28;20875;-81
2024/01/27 00:49:46;;;;;;;0.80;0.50;;;1.80;99.90;;;;;;4999196;28;20094;-80
2024/01/27 00:52:13;;;;;;;0.45;0.30;;;1.80;99.90;;;;;;4967513;28;20069;-81
2024/01/27 00:54:40;;;;;;;1.05;0.55;;;1.80;99.90;;;;;;5000275;28;20057;-80
2024/01/27 00:57:07;;;;;;;1.30;0.68;;;1.80;99.90;;;;;;4966646;28;20129;-80
2024/01/27 00:59:35;;;;;;;1.40;0.68;;;1.70;99.90;;;;;;4983055;28;20062;-80
2024/01/27 01:02:02;;;;;;;1.63;0.60;;;1.70;99.90;;;;;;5000560;28;20050;-80
2024/01/27 01:04:29;;;;;;;1.13;0.65;;;1.70;99.90;;;;;;4968999;28;20263;-81
2024/01/27 01:06:56;;;;;;;1.02;0.40;;;1.70;99.90;;;;;;4982665;28;20149;-81
2024/01/27 01:09:23;;;;;;;0.75;0.50;;;1.60;99.90;;;;;;4966749;28;20555;-80
2024/01/27 01:11:50;;;;;;;1.42;0.60;;;1.60;99.90;;;;;;4984077;28;20054;-81
2024/01/27 01:14:17;;;;;;;0.93;0.50;;;1.70;99.90;;;;;;4983405;28;20092;-80
2024/01/27 01:16:45;;;;;;;1.23;0.63;;;1.60;99.90;;;;;;4983285;28;20054;-80
2024/01/27 01:19:12;;;;;;;0.60;0.60;;;1.60;99.90;;;;;;5000035;28;20664;-80
2024/01/27 01:21:39;;;;;;;1.05;0.50;;;1.60;99.90;;;;;;5001429;28;20049;-80
2024/01/27 01:24:06;;;;;;;1.15;0.75;;;1.60;1.00;;;;;;4983117;28;20053;-80
2024/01/27 01:26:33;;;;;;;0.68;0.43;;;1.60;1.00;;;;;;4999764;28;20399;-80
2024/01/27 01:29:00;;;;;;;1.20;0.60;;;1.60;99.90;;;;;;4967570;28;20103;-80
2024/01/27 01:31:27;;;;;;;1.10;0.77;;;1.50;99.90;;;;;;4982750;28;20125;-80
2024/01/27 01:33:54;;;;;;;0.65;0.50;;;1.60;1.00;;;;;;4967264;28;20054;-80
2024/01/27 01:36:21;;;;;;;0.63;0.50;;;1.50;1.00;;;;;;4983376;28;20191;-80
2024/01/27 01:38:48;;;;;;;1.45;0.52;;;1.50;1.00;;;;;;4983469;28;20230;-81
2024/01/27 01:41:15;;;;;;;1.27;0.45;;;1.50;1.00;;;;;;4948416;28;20451;-80
2024/01/27 01:43:42;;;;;;;0.40;0.40;;;1.50;1.00;;;;;;4932170;28;20057;-79
2024/01/27 01:46:09;;;;;;;0.40;0.40;;;1.50;1.00;;;;;;4953910;28;20065;-80
2024/01/27 01:48:36;;;;;;;0.60;0.50;;;1.50;1.00;;;;;;4966944;28;20089;-80
2024/01/27 01:51:04;;;;;;;0.50;0.40;;;1.40;99.90;;;;;;4983798;28;20049;-80
2024/01/27 01:53:31;;;;;;;1.52;0.80;;;1.40;99.90;;;;;;4966508;28;20111;-79
2024/01/27 01:55:58;;;;;;;0.77;0.40;;;1.40;1.00;;;;;;4962646;28;20086;-79
2024/01/27 01:58:26;;;;;;;0.45;0.45;;;1.40;1.00;;;;;;4960735;28;20054;-79
2024/01/27 02:00:54;;;;;;;1.23;0.70;;;1.40;1.00;;;;;;4983351;28;20062;-78
2024/01/27 02:03:21;;;;;;;1.23;0.50;;;1.40;1.00;;;;;;5001185;28;20368;-79
2024/01/27 02:05:48;;;;;;;1.27;0.55;;;1.40;1.00;;;;;;4982877;28;20133;-79
2024/01/27 02:08:15;;;;;;;0.60;0.50;;;1.40;1.00;;;;;;4999724;28;20054;-79
2024/01/27 02:10:42;;;;;;;0.40;0.40;;;1.40;1.00;;;;;;4967744;28;20124;-79
2024/01/27 02:13:22;;;;;;;0.88;0.50;;;1.40;1.00;;;;;;5000079;28;20523;-79
2024/01/27 02:15:50;;;;;;;1.65;0.50;;;1.40;1.00;;;;;;4979055;28;20400;-79
2024/01/27 02:18:17;;;;;;;0.47;0.40;;;1.30;1.00;;;;;;4959423;28;20041;-79
2024/01/27 02:20:44;;;;;;;0.68;0.50;;;1.30;1.00;;;;;;4951303;28;20045;-82
2024/01/27 02:23:12;;;;;;;0.68;0.38;;;1.30;99.90;;;;;;4982181;28;20058;-79
2024/01/27 02:25:39;;;;;;;0.47;0.40;;;1.20;99.90;;;;;;4966966;28;20073;-81
2024/01/27 02:28:06;;;;;;;0.80;0.57;;;1.20;99.90;;;;;;4966440;28;20467;-80
2024/01/27 02:30:33;;;;;;;0.70;0.40;;;1.10;99.90;;;;;;4975588;28;20480;-81
2024/01/27 02:33:01;;;;;;;1.30;0.45;;;1.10;1.00;;;;;;4990445;28;20062;-81
2024/01/27 02:35:28;;;;;;;1.70;0.52;;;1.10;1.00;;;;;;5002511;28;20042;-79
2024/01/27 02:37:56;;;;;;;0.68;0.40;;;1.10;1.00;;;;;;5002690;28;20064;-79
2024/01/27 02:40:23;;;;;;;1.10;0.50;;;1.10;1.00;;;;;;4985987;28;20084;-79
2024/01/27 02:42:50;;;;;;;0.82;0.60;;;1.10;1.00;;;;;;5002676;28;20054;-79
2024/01/27 02:45:17;;;;;;;1.30;0.60;;;1.10;1.00;;;;;;5018077;28;20058;-79
2024/01/27 02:47:44;;;;;;;1.15;0.47;;;1.10;1.00;;;;;;4996289;28;20058;-79
2024/01/27 02:50:11;;;;;;;0.85;0.40;;;1.10;1.00;;;;;;4993132;28;20132;-79
2024/01/27 02:52:38;;;;;;;0.47;0.40;;;1.10;1.00;;;;;;4993975;28;20491;-79
2024/01/27 02:55:05;;;;;;;0.40;0.40;;;1.10;1.00;;;;;;4986519;28;20137;-79
2024/01/27 02:57:32;;;;;;;0.52;0.52;;;1.10;1.00;;;;;;4986955;28;20111;-79
2024/01/27 02:59:59;;;;;;;0.43;0.40;;;1.10;1.00;;;;;;4971243;28;20061;-79
2024/01/27 03:02:26;;;;;;;0.30;0.30;;;1.00;1.00;;;;;;4986310;28;20049;-79
2024/01/27 03:04:53;;;;;;;1.15;0.70;;;1.00;1.00;;;;;;5001391;28;20467;-79
2024/01/27 03:07:20;;;;;;;1.83;0.68;;;1.00;1.00;;;;;;4970489;28;20496;-80
2024/01/27 03:09:47;;;;;;;0.47;0.40;;;0.90;1.00;;;;;;4970430;28;20073;-79
2024/01/27 03:12:15;;;;;;;0.47;0.40;;;0.80;99.90;;;;;;4986724;28;20541;-81
2024/01/27 03:14:42;;;;;;;0.45;0.40;;;0.90;1.00;;;;;;4986882;28;20054;-81
2024/01/27 03:17:09;;;;;;;0.50;0.30;;;0.90;1.00;;;;;;4986485;28;20054;-79
2024/01/27 03:19:36;;;;;;;1.60;0.68;;;0.90;1.00;;;;;;4985304;28;20057;-79
2024/01/27 03:22:03;;;;;;;2.10;0.80;;;0.80;1.00;;;;;;5002851;28;20045;-78
2024/01/27 03:24:30;;;;;;;1.67;0.68;;;0.80;1.00;;;;;;4986158;28;20056;-81
2024/01/27 03:27:00;;;;;;;0.93;0.55;;;0.80;45.90;;;;;;4987007;28;20053;-82
2024/01/27 03:29:28;;;;;;;1.17;0.40;;;0.70;88.40;;;;;;4986889;28;20077;-81
2024/01/27 03:31:55;;;;;;;0.88;0.40;;;0.80;92.40;;;;;;4986210;28;20054;-82
2024/01/27 03:34:24;;;;;;;1.33;0.88;;;0.80;99.90;;;;;;4986695;28;20061;-80
2024/01/27 03:36:52;;;;;;;0.57;0.40;;;0.80;99.90;;;;;;4986209;28;20049;-79
2024/01/27 03:39:19;;;;;;;0.77;0.45;;;0.80;99.90;;;;;;5000527;28;20403;-79
2024/01/27 03:41:46;;;;;;;0.98;0.55;;;0.80;1.00;;;;;;4997748;28;20054;-79
2024/01/27 03:44:13;;;;;;;0.77;0.40;;;0.80;47.80;;;;;;4999851;28;20132;-80
2024/01/27 03:46:40;;;;;;;0.30;0.30;;;0.80;1.00;;;;;;4986024;28;20054;-80
2024/01/27 03:49:07;;;;;;;0.85;0.50;;;0.70;43.80;;;;;;5002545;28;20120;-78
2024/01/27 03:51:34;;;;;;;1.30;0.43;;;0.70;31.20;;;;;;4972133;28;20081;-80
2024/01/27 03:54:03;;;;;;;0.77;0.50;;;0.70;1.00;;;;;;5006445;28;20042;-80
2024/01/27 03:56:30;;;;;;;0.55;0.40;;;0.70;41.70;;;;;;5006527;28;20517;-80
2024/01/27 03:58:57;;;;;;;1.17;0.40;;;0.80;63.20;;;;;;4990271;28;20054;-80
2024/01/27 04:01:24;;;;;;;0.77;0.40;;;0.80;99.90;;;;;;5005888;28;20050;-80
2024/01/27 04:03:51;;;;;;;0.60;0.40;;;0.80;99.90;;;;;;4989791;28;20064;-79
2024/01/27 04:06:18;;;;;;;0.45;0.25;;;0.90;99.90;;;;;;5005063;28;20524;-79
2024/01/27 04:08:47;;;;;;;0.70;0.40;;;0.90;99.90;;;;;;4973854;28;20108;-79
2024/01/27 04:11:24;;;;;;;1.23;0.60;;;0.90;99.90;;;;;;4989720;28;20157;-79
2024/01/27 04:13:50;;;;;;;0.80;0.50;;;0.80;1.00;;;;;;5006316;28;20492;-79
2024/01/27 04:16:18;;;;;;;0.88;0.40;;;0.80;38.20;;;;;;4989756;28;20065;-79
2024/01/27 04:18:45;;;;;;;0.85;0.63;;;0.80;99.90;;;;;;4990025;28;20049;-79
2024/01/27 04:21:12;;;;;;;0.32;0.30;;;0.80;99.90;;;;;;4988892;28;20054;-79
2024/01/27 04:23:39;;;;;;;0.45;0.40;;;0.80;99.90;;;;;;5005546;28;20625;-79
2024/01/27 04:26:06;;;;;;;0.25;0.20;;;0.80;99.90;;;;;;4989293;28;20095;-79
2024/01/27 04:28:33;;;;;;;0.57;0.35;;;0.80;99.90;;;;;;4989919;28;20104;-79
2024/01/27 04:31:00;;;;;;;0.75;0.40;;;0.70;97.20;;;;;;4989395;28;20052;-79
2024/01/27 04:33:27;;;;;;;0.68;0.45;;;0.70;99.90;;;;;;4973399;28;20064;-79
2024/01/27 04:35:55;;;;;;;0.88;0.50;;;0.70;99.90;;;;;;4972402;28;20074;-79
2024/01/27 04:38:22;;;;;;;1.20;0.40;;;0.70;99.90;;;;;;5005530;28;20117;-79
2024/01/27 04:40:49;;;;;;;0.52;0.32;;;0.70;99.90;;;;;;4989113;28;20061;-79
2024/01/27 04:43:16;;;;;;;0.30;0.30;;;0.60;99.90;;;;;;4989372;28;20061;-78
2024/01/27 04:45:44;;;;;;;0.22;0.22;;;0.60;99.90;;;;;;4989524;28;20506;-79
2024/01/27 04:48:11;;;;;;;0.30;0.30;;;0.70;99.90;;;;;;5001484;28;20054;-78
2024/01/27 04:50:38;;;;;;;0.57;0.50;;;0.70;99.90;;;;;;4979672;28;20061;-79
2024/01/27 04:53:05;;;;;;;0.20;0.20;;;0.70;99.90;;;;;;4999455;28;20152;-79
2024/01/27 04:55:33;;;;;;;0.60;0.47;;;0.70;99.90;;;;;;5006195;28;20049;-79
2024/01/27 04:58:00;;;;;;;0.30;0.30;;;0.70;99.90;;;;;;5006560;28;20041;-79
2024/01/27 05:00:28;;;;;;;0.30;0.30;;;0.60;99.90;;;;;;4989751;28;20057;-79
2024/01/27 05:02:55;;;;;;;0.32;0.30;;;0.70;99.90;;;;;;4990067;28;20045;-79
2024/01/27 05:05:22;;;;;;;0.55;0.40;;;0.60;99.90;;;;;;5008155;28;20104;-79
2024/01/27 05:07:49;;;;;;;0.40;0.40;;;0.50;99.90;;;;;;5004710;28;20475;-79
2024/01/27 05:10:17;;;;;;;1.38;0.90;;;0.50;99.90;;;;;;5006042;28;20123;-79
2024/01/27 05:12:44;;;;;;;0.70;0.30;;;0.50;99.90;;;;;;5007260;28;20153;-81
2024/01/27 05:15:11;;;;;;;0.28;0.28;;;0.60;99.90;;;;;;4989842;28;20528;-81
2024/01/27 05:17:38;;;;;;;0.30;0.30;;;0.60;99.90;;;;;;5005719;28;20097;-81
2024/01/27 05:20:07;;;;;;;0.82;0.38;;;0.50;99.90;;;;;;4990167;28;20050;-81
2024/01/27 05:22:34;;;;;;;0.20;0.20;;;0.50;99.90;;;;;;5003871;28;20049;-81
2024/01/27 05:25:03;;;;;;;0.50;0.40;;;0.50;99.90;;;;;;5005774;28;20058;-81
2024/01/27 05:27:30;;;;;;;0.98;0.38;;;0.40;88.30;;;;;;4990043;28;20119;-82
2024/01/27 05:29:56;;;;;;;0.32;0.30;;;0.40;99.90;;;;;;5006305;28;20151;-79
2024/01/27 05:32:23;;;;;;;0.77;0.40;;;0.40;99.90;;;;;;4972994;28;20456;-79
2024/01/27 05:34:50;;;;;;;1.80;0.60;;;0.40;99.90;;;;;;4973443;28;20053;-79
2024/01/27 05:37:18;;;;;;;0.68;0.50;;;0.40;99.90;;;;;;5005380;28;20061;-79
2024/01/27 05:39:44;;;;;;;0.38;0.38;;;0.40;99.90;;;;;;5005583;28;20073;-79
2024/01/27 05:42:11;;;;;;;0.30;0.30;;;0.40;99.90;;;;;;4989830;28;20433;-79
2024/01/27 05:44:40;;;;;;;0.52;0.40;;;0.40;99.90;;;;;;5005509;28;20080;-80
2024/01/27 05:47:07;;;;;;;0.70;0.40;;;0.40;99.90;;;;;;4989622;28;20053;-81
2024/01/27 05:49:37;;;;;;;0.60;0.35;;;0.40;99.90;;;;;;4953932;28;20050;-79
2024/01/27 05:52:05;;;;;;;0.50;0.40;;;0.40;99.90;;;;;;4982525;28;20093;-78
2024/01/27 05:54:33;;;;;;;0.30;0.30;;;0.30;99.90;;;;;;5001745;28;20046;-79
2024/01/27 05:57:00;;;;;;;0.55;0.30;;;0.30;99.90;;;;;;4982422;28;20046;-79
2024/01/27 05:59:27;;;;;;;0.30;0.30;;;0.40;99.90;;;;;;5004728;28;20054;-80
2024/01/27 06:01:54;;;;;;;0.50;0.30;;;0.30;58.00;;;;;;5001641;28;20050;-79
2024/01/27 06:04:21;;;;;;;0.40;0.40;;;0.20;19.40;;;;;;4999253;28;20411;-79
2024/01/27 06:06:48;;;;;;;0.45;0.40;;;0.20;99.90;;;;;;4998738;28;20057;-78
2024/01/27 06:09:16;;;;;;;0.63;0.47;;;0.20;99.90;;;;;;4966563;28;20579;-79
2024/01/27 06:11:43;;;;;;;0.28;0.28;;;0.20;99.90;;;;;;4984702;28;20137;-79
2024/01/27 06:14:10;;;;;;;0.38;0.38;;;0.20;99.90;;;;;;4970728;28;20077;-79
2024/01/27 06:16:37;;;;;;;0.40;0.30;;;0.20;99.90;;;;;;5002328;28;20052;-80
2024/01/27 06:19:04;;;;;;;1.20;1.10;;;0.30;99.90;;;;;;4984532;28;20057;-79
2024/01/27 06:21:31;;;;;;;1.15;0.40;;;0.30;99.90;;;;;;4982405;28;20082;-79
2024/01/27 06:23:59;;;;;;;0.98;0.45;;;0.30;99.90;;;;;;4967240;28;20897;-79
2024/01/27 06:26:26;;;;;;;0.57;0.40;;;0.30;99.90;;;;;;4999939;28;20132;-80
2024/01/27 06:28:53;;;;;;;0.40;0.32;;;0.30;99.90;;;;;;5000199;28;20046;-79
2024/01/27 06:31:20;;;;;;;2.03;1.00;;;0.30;99.90;;;;;;4998487;28;20050;-80
2024/01/27 06:33:48;;;;;;;0.40;0.40;;;0.30;99.90;;;;;;4983069;28;20057;-80
2024/01/27 06:36:15;;;;;;;0.55;0.30;;;0.30;99.90;;;;;;5001592;28;20396;-79
2024/01/27 06:38:42;;;;;;;0.57;0.30;;;0.20;99.90;;;;;;4986514;28;20346;-80
2024/01/27 06:41:10;;;;;;;0.40;0.40;;;0.30;99.90;;;;;;4986124;28;20046;-79
2024/01/27 06:43:37;;;;;;;0.30;0.30;;;0.20;99.90;;;;;;4970775;28;20065;-80
2024/01/27 06:46:04;;;;;;;0.30;0.30;;;0.20;99.90;;;;;;4986221;28;20046;-79
2024/01/27 06:48:31;;;;;;;0.55;0.55;;;0.20;99.90;;;;;;4986419;28;20058;-80
2024/01/27 06:50:58;;;;;;;0.43;0.30;;;0.20;99.90;;;;;;4984625;28;20444;-79
2024/01/27 06:53:25;;;;;;;1.13;0.63;;;0.20;99.90;;;;;;4985238;28;20248;-79
2024/01/27 06:55:52;;;;;;;0.60;0.38;;;0.20;99.90;;;;;;4970207;28;20053;-79
2024/01/27 06:58:19;;;;;;;0.30;0.30;;;0.20;99.90;;;;;;5003802;28;20046;-79
2024/01/27 07:00:46;;;;;;;0.40;0.40;;;0.20;99.90;;;;;;4980444;28;20054;-80
2024/01/27 07:03:13;;;;;;;0.77;0.40;;;0.20;99.90;;;;;;4990413;28;20078;-79
2024/01/27 07:05:40;;;;;;;0.57;0.40;;;0.20;99.90;;;;;;4947800;28;20138;-80
2024/01/27 07:08:08;;;;;;;0.30;0.30;;;0.20;99.90;;;;;;4931035;28;20054;-81
2024/01/27 07:10:35;;;;;;;0.60;0.50;;;0.20;99.90;;;;;;4930263;28;20532;-80
2024/01/27 07:13:02;;;;;;;0.85;0.30;;;0.30;99.90;;;;;;4951102;28;20050;-80
2024/01/27 07:15:29;;;;;;;2.08;0.75;;;0.30;99.90;;;;;;4970049;28;20057;-80
2024/01/27 07:17:57;;;;;;;0.47;0.40;;;0.30;99.90;;;;;;4985299;28;20058;-79
2024/01/27 07:20:24;;;;;;;1.20;0.40;;;0.20;99.90;;;;;;4963067;28;20105;-78
2024/01/27 07:22:54;;;;;;;0.40;0.40;;;0.30;99.90;;;;;;4951459;28;20051;-78
2024/01/27 07:25:21;;;;;;;0.47;0.45;;;0.30;99.90;;;;;;4961434;28;20634;-79
2024/01/27 07:27:48;;;;;;;0.55;0.55;;;0.20;99.90;;;;;;4950014;28;20051;-78
2024/01/27 07:30:15;;;;;;;0.77;0.30;;;0.30;99.90;;;;;;4967298;28;20101;-79
2024/01/27 07:32:44;;;;;;;1.17;0.50;;;0.30;99.90;;;;;;4998347;28;20137;-80
2024/01/27 07:35:14;;;;;;;0.90;0.45;;;0.30;99.90;;;;;;4989846;28;20056;-81
2024/01/27 07:37:43;;;;;;;0.30;0.30;;;0.30;99.90;;;;;;4988145;28;20049;-80
2024/01/27 07:40:10;;;;;;;0.40;0.40;;;0.40;99.90;;;;;;4989231;28;20054;-80
2024/01/27 07:42:37;;;;;;;0.40;0.40;;;0.50;1.00;;;;;;4988929;28;20057;-79
2024/01/27 07:45:05;;;;;;;0.70;0.30;;;0.50;1.00;;;;;;4965821;28;20111;-79
2024/01/27 07:47:37;;;;;;;0.65;0.45;;;0.50;1.00;;;;;;4985746;28;20144;-80
2024/01/27 07:50:04;;;;;;;0.35;0.30;;;0.50;1.00;;;;;;5001383;28;20046;-80
2024/01/27 07:52:31;;;;;;;0.47;0.47;;;0.60;1.00;;;;;;5002066;28;20062;-80
2024/01/27 07:54:58;;;;;;;0.70;0.60;;;0.50;1.00;;;;;;4989928;28;20058;-82
2024/01/27 07:57:25;;;;;;;0.55;0.40;;;0.60;1.00;;;;;;4999197;28;20049;-77
2024/01/27 07:59:52;;;;;;;0.40;0.35;;;0.60;1.00;;;;;;5001249;28;20056;-80
2024/01/27 08:02:19;;;;;;;0.73;0.40;;;0.70;25.10;;;;;;4988851;28;20053;-81
2024/01/27 08:04:46;;;;;;;1.77;1.15;;;0.70;13.90;;;;;;4982756;28;20046;-80
2024/01/27 08:07:16;;;;;;;0.68;0.30;;;0.70;1.00;;;;;;4983141;28;20136;-80
2024/01/27 08:09:43;;;;;;;0.63;0.47;;;0.70;1.00;;;;;;5005512;28;20144;-80
2024/01/27 08:12:11;;;;;;;0.68;0.40;;;0.80;22.60;;;;;;5006206;28;20057;-81
2024/01/27 08:14:38;;;;;;;0.40;0.40;;;0.80;13.60;;;;;;4985493;28;20463;-81
2024/01/27 08:17:05;;;;;;;0.70;0.47;;;0.90;97.60;;;;;;4970341;28;20045;-80
2024/01/27 08:19:32;;;;;;;0.30;0.30;;;1.00;99.90;;;;;;4985614;28;20050;-80
2024/01/27 08:21:59;;;;;;;0.30;0.30;;;1.00;99.90;;;;;;4985160;28;20053;-80
2024/01/27 08:24:27;;;;;;;0.73;0.35;;;1.00;99.90;;;;;;4972613;28;20050;-81
2024/01/27 08:26:54;;;;;;;0.45;0.40;;;1.10;99.90;;;;;;4989461;28;20054;-81
2024/01/27 08:29:21;;;;;;;0.75;0.30;;;1.20;99.90;;;;;;4969628;28;20827;-80
2024/01/27 08:31:49;;;;;;;0.82;0.47;;;1.40;1.00;;;;;;4954517;28;20141;-81
2024/01/27 08:34:16;;;;;;;0.77;0.65;;;1.50;1.00;;;;;;5020603;28;20041;-80
2024/01/27 08:36:43;;;;;;;0.77;0.60;;;1.60;1.00;;;;;;4967411;28;20081;-81
2024/01/27 08:39:12;;;;;;;0.70;0.60;;;1.70;99.90;;;;;;4987737;28;20095;-80
2024/01/27 08:41:39;;;;;;;0.70;0.50;;;1.90;99.90;;;;;;5006899;28;20061;-81
2024/01/27 08:44:06;;;;;;;0.65;0.40;;;2.00;99.90;;;;;;5005727;28;20093;-80
2024/01/27 08:46:33;;;;;;;0.95;0.57;;;2.20;1.00;;;;;;4985511;28;20053;-80
2024/01/27 08:49:00;;;;;;;1.23;0.70;;;2.40;1.00;;;;;;4987189;28;20070;-81
2024/01/27 08:51:28;;;;;;;0.73;0.50;;;2.50;99.90;;;;;;5019059;28;20408;-80
2024/01/27 08:53:55;;;;;;;1.02;0.60;;;2.60;99.90;;;;;;5004701;28;20058;-81
2024/01/27 08:56:22;;;;;;;1.30;0.88;;;2.60;99.90;;;;;;5004547;28;20046;-81
2024/01/27 08:58:49;;;;;;;0.70;0.50;;;2.70;99.90;;;;;;5004550;28;20050;-83
2024/01/27 09:01:17;;;;;;;0.82;0.47;;;2.90;99.90;;;;;;4991225;28;20050;-79
2024/01/27 09:03:44;;;;;;;1.23;0.50;;;2.90;99.90;;;;;;5004464;28;20443;-80
2024/01/27 09:06:11;;;;;;;0.45;0.45;;;3.10;1.00;;;;;;4986114;28;20112;-76
2024/01/27 09:08:39;;;;;;;0.80;0.60;;;3.30;1.00;;;;;;5013866;28;20054;-76
2024/01/27 09:11:06;;;;;;;1.05;0.70;;;3.40;1.00;;;;;;5004509;28;20120;-77
2024/01/27 09:13:33;;;;;;;0.68;0.40;;;3.60;1.00;;;;;;5003554;28;20056;-77
2024/01/27 09:16:00;;;;;;;0.75;0.50;;;3.70;1.00;;;;;;5004804;28;20666;-77
2024/01/27 09:18:27;;;;;;;1.15;0.60;;;3.80;1.00;;;;;;5001337;28;20042;-76
2024/01/27 09:20:55;;;;;;;0.65;0.47;;;3.90;99.90;;;;;;5003407;28;20601;-77
2024/01/27 09:23:22;;;;;;;1.13;0.70;;;4.00;99.90;;;;;;5001360;28;21110;-78
2024/01/27 09:25:49;;;;;;;2.45;0.75;;;4.20;99.90;;;;;;5000881;28;20184;-77
2024/01/27 09:28:17;;;;;;;0.75;0.60;;;4.30;82.00;;;;;;4987502;28;20081;-77
2024/01/27 09:30:44;;;;;;;1.00;0.45;;;4.40;1.00;;;;;;5003849;28;20104;-78
2024/01/27 09:33:11;;;;;;;1.58;0.90;;;4.50;99.90;;;;;;4986876;28;20677;-77
2024/01/27 09:35:39;;;;;;;1.00;0.57;;;4.70;99.90;;;;;;5002940;28;20061;-78
2024/01/27 09:38:09;;;;;;;0.38;0.20;;;4.80;99.30;;;;;;5003976;28;20046;-78
2024/01/27 09:40:36;;;;;;;1.75;0.60;;;4.90;1.00;;;;;;5002967;28;20068;-78
2024/01/27 09:43:03;;;;;;;0.50;0.30;;;5.10;1.00;;;;;;5004576;28;20133;-77
2024/01/27 09:45:30;;;;;;;1.00;0.50;;;5.20;99.90;;;;;;5004570;28;20090;-78
2024/01/27 09:47:59;;;;;;;0.60;0.40;;;5.30;99.90;;;;;;4986085;28;20057;-78
2024/01/27 09:50:27;;;;;;;0.32;0.30;;;5.40;49.40;;;;;;5002885;28;20057;-78
2024/01/27 09:52:54;;;;;;;0.25;0.25;;;5.50;1.00;;;;;;5001344;28;20692;-78
2024/01/27 09:55:21;;;;;;;0.82;0.40;;;5.60;1.00;;;;;;5002810;28;20140;-78
2024/01/27 09:57:49;;;;;;;0.57;0.30;;;5.70;1.00;;;;;;4986055;28;20500;-77
2024/01/27 10:00:16;;;;;;;0.30;0.30;;;5.80;99.90;;;;;;5004303;28;20139;-77
2024/01/27 10:02:46;;;;;;;0.43;0.30;;;5.90;99.90;;;;;;4999306;28;20049;-77
2024/01/27 10:05:13;;;;;;;0.40;0.30;;;5.90;99.90;;;;;;5000289;28;20053;-77
2024/01/27 10:07:40;;;;;;;0.80;0.40;;;6.10;99.90;;;;;;5001068;28;20444;-78
2024/01/27 10:10:07;;;;;;;0.73;0.43;;;6.20;99.90;;;;;;5002441;28;20050;-78
2024/01/27 10:12:37;;;;;;;1.05;0.40;;;6.30;99.90;;;;;;5004559;28;20049;-78
2024/01/27 10:15:05;;;;;;;0.43;0.28;;;6.40;99.90;;;;;;4986679;28;20057;-78
2024/01/27 10:17:37;;;;;;;1.10;0.32;;;6.50;99.90;;;;;;5002566;28;20061;-78
2024/01/27 10:20:05;;;;;;;0.38;0.30;;;6.60;99.90;;;;;;5004162;28;20053;-78
2024/01/27 10:22:39;;;;;;;0.98;0.77;;;6.70;99.90;;;;;;5000915;28;20050;-79
2024/01/27 10:25:06;;;;;;;0.70;0.40;;;6.80;99.90;;;;;;4986020;28;20155;-78
2024/01/27 10:27:33;;;;;;;0.40;0.30;;;6.90;99.90;;;;;;4986222;28;20381;-77
2024/01/27 10:30:01;;;;;;;0.47;0.40;;;7.00;99.90;;;;;;5002403;28;20083;-78
2024/01/27 10:32:30;;;;;;;0.47;0.32;;;7.00;99.90;;;;;;5002925;28;20057;-79
2024/01/27 10:35:04;;;;;;;0.50;0.40;;;7.10;99.90;;;;;;5003332;28;20061;-78
2024/01/27 10:37:31;;;;;;;0.38;0.30;;;7.10;99.90;;;;;;5001857;28;20120;-78
2024/01/27 10:40:08;;;;;;;0.22;0.22;;;7.20;99.90;;;;;;5003336;28;20045;-78
2024/01/27 10:42:35;;;;;;;1.05;0.50;;;7.40;99.90;;;;;;5003700;28;20113;-78
2024/01/27 10:45:03;;;;;;;0.47;0.28;;;7.50;99.90;;;;;;5003669;28;20119;-78
2024/01/27 10:47:31;;;;;;;0.35;0.20;;;7.60;99.90;;;;;;5003336;28;20053;-78
2024/01/27 10:50:02;;;;;;;1.10;0.38;;;7.70;99.90;;;;;;4985927;28;20112;-78
2024/01/27 10:52:32;;;;;;;0.60;0.50;;;7.80;99.90;;;;;;4969476;28;20058;-78
2024/01/27 10:55:00;;;;;;;1.25;0.50;;;7.80;91.30;;;;;;4985724;28;20183;-78
2024/01/27 10:57:27;;;;;;;0.57;0.40;;;8.00;66.60;;;;;;4986193;28;20053;-78
2024/01/27 10:59:54;;;;;;;0.55;0.30;;;8.00;53.50;;;;;;4988665;28;20072;-79
2024/01/27 11:02:21;;;;;;;0.40;0.40;;;8.20;60.80;;;;;;4971212;28;20489;-78
2024/01/27 11:04:49;;;;;;;0.75;0.40;;;8.20;39.20;;;;;;4986947;28;20054;-78
2024/01/27 11:07:17;;;;;;;0.40;0.40;;;8.30;39.70;;;;;;5002694;28;20088;-78
2024/01/27 11:09:44;;;;;;;0.35;0.35;;;8.40;34.60;;;;;;4986447;28;20423;-78
2024/01/27 11:12:11;;;;;;;0.95;0.43;;;8.50;22.70;;;;;;5003469;28;20069;-77
2024/01/27 11:14:38;;;;;;;0.38;0.30;;;8.50;27.10;;;;;;4986628;28;20483;-78
2024/01/27 11:17:08;;;;;;;1.52;0.60;;;8.60;18.80;;;;;;4987085;28;20128;-79
2024/01/27 11:19:35;;;;;;;0.57;0.50;;;8.70;11.30;;;;;;4998619;28;20189;-78
2024/01/27 11:22:03;;;;;;;0.40;0.40;;;8.80;5.80;;;;;;4966047;28;20149;-78
2024/01/27 11:24:30;;;;;;;1.67;0.82;;;8.90;4.30;;;;;;4986423;28;20050;-77
2024/01/27 11:27:02;;;;;;;1.83;0.90;;;8.90;5.30;;;;;;4988986;28;20184;-78
2024/01/27 11:29:31;;;;;;;0.93;0.60;;;8.90;1.00;;;;;;5007360;28;20054;-78
2024/01/27 11:32:02;;;;;;;1.13;0.52;;;9.00;1.00;;;;;;4989387;28;20049;-78
2024/01/27 11:34:49;;;;;;;0.82;0.57;;;9.00;1.00;;;;;;4976559;28;20085;-77
2024/01/27 11:37:17;;;;;;;1.73;0.70;;;9.00;1.00;;;;;;4983645;28;20046;-77
2024/01/27 11:39:44;;;;;;;3.25;0.80;;;8.90;1.00;;;;;;4990117;28;20049;-78
2024/01/27 11:42:15;;;;;;;1.58;0.73;;;8.90;1.00;;;;;;5003659;28;20483;-78
2024/01/27 11:44:42;;;;;;;1.10;0.70;;;8.90;1.00;;;;;;4982241;28;20167;-77
2024/01/27 11:47:17;;;;;;;3.72;1.45;;;8.90;1.00;;;;;;4964716;28;20092;-77
2024/01/27 11:49:53;;;;;;;2.20;1.00;;;9.00;1.00;;;;;;4966513;28;20460;-77
2024/01/27 11:52:20;;;;;;;2.13;1.60;;;9.00;1.00;;;;;;4968608;28;20049;-78
2024/01/27 11:54:53;;;;;;;1.65;0.95;;;9.10;1.00;;;;;;4954558;28;20583;-78
2024/01/27 11:57:20;;;;;;;1.98;0.70;;;9.20;1.00;;;;;;4989738;28;20088;-77
2024/01/27 11:59:47;;;;;;;1.20;0.63;;;9.30;1.00;;;;;;4989054;28;20097;-78
2024/01/27 12:02:14;;;;;;;1.90;0.73;;;9.40;1.00;;;;;;5005999;28;20115;-78
2024/01/27 12:04:41;;;;;;;1.15;0.60;;;9.50;1.00;;;;;;5006480;28;20045;-78
2024/01/27 12:07:09;;;;;;;1.90;0.80;;;9.60;1.00;;;;;;4987504;28;20388;-78
2024/01/27 12:09:36;;;;;;;1.58;1.10;;;9.60;1.00;;;;;;4989127;28;20060;-78
2024/01/27 12:12:04;;;;;;;2.53;0.82;;;9.70;1.00;;;;;;4987980;28;20830;-78
2024/01/27 12:14:43;;;;;;;1.80;0.90;;;9.70;1.00;;;;;;4988799;28;20050;-78
2024/01/27 12:17:11;;;;;;;4.47;1.20;;;9.70;1.00;;;;;;4988894;28;20053;-78
2024/01/27 12:19:38;;;;;;;3.88;1.25;;;9.70;1.00;;;;;;4989006;28;20054;-77
2024/01/27 12:22:05;;;;;;;1.77;0.90;;;9.70;1.00;;;;;;4971351;28;20489;-78
2024/01/27 12:24:32;;;;;;;1.35;0.82;;;9.70;1.00;;;;;;4972213;28;20046;-78
2024/01/27 12:26:59;;;;;;;1.65;0.75;;;9.80;1.00;;;;;;5005770;28;20137;-78
2024/01/27 12:29:28;;;;;;;1.35;1.10;;;9.90;1.00;;;;;;4988305;28;20396;-78
2024/01/27 12:31:55;;;;;;;2.17;0.75;;;10.00;1.00;;;;;;5005606;28;20050;-78
2024/01/27 12:34:22;;;;;;;2.10;0.70;;;10.00;1.00;;;;;;4989486;28;20050;-85
2024/01/27 12:36:51;;;;;;;5.50;1.65;;;10.10;1.00;;;;;;4980779;28;20547;-84
2024/01/27 12:39:19;;;;;;;3.28;1.17;;;10.00;1.00;;;;;;4938347;28;20050;-78
2024/01/27 12:41:47;;;;;;;0.90;0.70;;;10.10;1.00;;;;;;4953038;28;20046;-77
2024/01/27 12:44:15;;;;;;;1.38;0.70;;;10.10;1.00;;;;;;4989785;28;20062;-77
2024/01/27 12:46:41;;;;;;;1.52;0.90;;;10.20;1.00;;;;;;4985595;28;20054;-77
2024/01/27 12:49:08;;;;;;;2.05;1.00;;;10.10;1.00;;;;;;4968246;28;20046;-77
2024/01/27 12:51:36;;;;;;;2.95;1.20;;;10.00;1.00;;;;;;4966442;28;20554;-76
2024/01/27 12:54:05;;;;;;;2.42;1.10;;;9.90;1.00;;;;;;4971548;28;20050;-76
2024/01/27 12:56:34;;;;;;;0.85;0.57;;;10.00;1.00;;;;;;4985004;28;20054;-76
2024/01/27 12:59:01;;;;;;;3.97;1.23;;;10.10;1.00;;;;;;4964850;28;20047;-77
2024/01/27 13:01:29;;;;;;;1.50;0.73;;;10.20;1.00;;;;;;4986256;28;20076;-77